Gatzke, MN (56724)

11:39 PM CST on December 26, 2014 (GMT -0600)
Erickson Family Farms | Change Station
CLOSE
Current Station
Personal Weather Station
Location: Middle River, MN
Elevation: 1142 ft
Nearby Weather Stations

Elev 1142 ft 48.34 °N, 96.09 °W | Updated 2 seconds ago

Snow
Snow
10.8 °F
Feels Like 11 °F
N
0.0
Wind Variable Wind from WSW
Gusts 0.0 mph

Today
High -- | Low -- °F
--% Chance of Precip.
Yesterday
High -- | Low -- °F
Precip. -- in
8:13 AM 4:33 PM
Waxing Crescent, 33% visible
Pressure 30.18 in
Visibility 10.0 miles
Clouds Overcast 1300 ft
Windchill 11 °F
Dew Point 2 °F
Humidity 67%
Rainfall 0.00 in
Snow Depth Not available.
UV 0.0 out of 12
Pollen .10 out of 12
Air Quality Not available.
Flu Activity Not available.
METAR KTVF 270535Z AUTO 31004KT 10SM OVC013 M12/M14 A3018 RMK AO1

More Conditions Fewer Conditions

Pressure 30.18 in
Visibility 10.0 miles
Clouds Overcast 1300 ft
Windchill 11 °F
Dew Point 2 °F
Humidity 67%
Rainfall 0.00 in
Snow Depth Not available.
UV 0.0 out of 12
Pollen .10 out of 12
Air Quality Not available.
Flu Activity Not available.
METAR KTVF 270535Z AUTO 31004KT 10SM OVC013 M12/M14 A3018 RMK AO1

More Conditions Fewer Conditions

10-Day Weather Forecast

Almanac

Astronomy

Dec. 26, 2014 Rise Set
Actual Time
Civil Twilight
Nautical Twilight
Astronomical Twilight
Moon
Length of Visible Light
Length of Day
Tomorrow will be .
, % of the Moon is Illuminated

Today's Extremes

State Highs State Lows

Community

WunderPhotos

Upload Photos

1,780,849 photos uploaded!

WunderBlogs® & News

Nearby

Air Quality

  Air Quality AQ Index Pollutant
Not available.

Snow Depth

Station Depth Elevation

Earthquake Activity

City Distance Mag. Time & Date
Minimum magnitude displayed is 2.5.

Coastal Water Temperatures

Place Temperature

Nearby Weather Stations